x

9440910 - Toke Point, Wa (tokw1) Weather Station

12:48 - Sat 3rd Dec 2016 All times are PST. -8 hours from GMT.

  • Wind
    10mph, 14mph gusts
  • Sea Temp 51°f
  • Air Temp 48°f
  • Sea Pressure 1025.1mb
  • 9440910 - Toke Point, Wa
  • 9440910 - Toke Point, Wa

More Historic Weather Station data

Upgrade to MSW Pro to gain access to the past 30 days of data for over 8000 Wavebouys and Weather Stations around the globe.

Join Pro

Comparision Forecast

View Surf forecast
   
sam. 12/03 12:48 10 14 mph 1025.1mb 51f 48f
12:42 11 16 mph 1025.1mb 51f 48f
12:36 9 14 mph 1025.1mb 51f 48f
12:30 7 10 mph 1025mb 51f 48f
12:24 1 2 mph 1024.9mb 51f 48f
12:18  -  1 mph 1024.8mb 51f 48f
12:12 2 5 mph 1024.9mb 51f 48f
12:06 5
mph
1024.8mb 51f 48f
12:00 2 3 mph 1024.8mb 50f 48f
ven. 12/02 11:54 3 5 mph 1024.6mb 50f 48f
11:48 3
mph
1024.6mb 50f 48f
11:42 2 5 mph 1024.5mb 50f 48f
11:36 3 6 mph 1024.4mb 50f 48f
11:30 5 6 mph 1024.3mb 50f 48f
11:24 6 7 mph 1024.2mb 50f 48f
11:18 7 10 mph 1024.2mb 49f -
11:12 9 13 mph 1024.3mb 49f 48f
11:06 13 17 mph 1024mb 49f 49f
11:00 15 20 mph 1024.1mb 49f 49f
10:54 14 20 mph 1024mb 49f 49f
10:48 14 18 mph 1024mb 49f 48f
10:42 17 26 mph 1023.9mb 49f 49f
10:36 16 24 mph 1023.8mb 49f 49f
10:30 7 9 mph 1023.5mb 49f 49f
10:24 8 10 mph 1023.5mb 49f 49f
10:18 8 15 mph 1023.5mb 49f 48f
10:12 10 13 mph 1023.4mb 49f 49f
10:06 8 18 mph 1023.3mb 49f 48f
10:00 8 13 mph 1023.5mb 49f 49f
9:54 6 7 mph 1023.4mb 49f 48f
9:48 5 8 mph 1023.2mb 49f 49f
9:42 7 9 mph 1023.2mb 49f 49f
9:36 9 14 mph 1023.2mb 49f 49f
9:30 13 14 mph 1023.2mb 49f 49f
9:24 15 18 mph 1023.2mb 49f 49f
9:18 16 21 mph 1022.9mb 49f 49f
9:12 10 14 mph 1022.9mb 49f 49f
9:06 10 14 mph 1022.7mb 49f 50f
9:00 15 21 mph 1022.6mb 49f 50f
8:54 16 20 mph 1022.5mb 49f 50f
8:48 11 14 mph 1022.6mb 49f 51f
8:42 9 13 mph 1022.5mb 50f 50f
8:36 13 15 mph 1022.6mb 49f 51f
8:30 9 11 mph 1022.6mb 50f 51f
8:24 8 10 mph 1022.5mb 50f 50f
8:18 9 13 mph 1022.2mb 49f 50f
8:12 10 13 mph 1022.2mb 50f 51f
8:06 10 13 mph 1022.1mb 50f 51f
8:00 9 13 mph 1022.2mb 50f 51f
7:54 10 13 mph 1022.1mb 50f 51f
7:48 11 15 mph 1022mb 50f 51f
7:42 11 15 mph 1021.9mb 50f 51f
7:36 13 16 mph 1022mb 50f 51f
7:30 11 14 mph 1021.8mb 50f 51f
7:24 10 13 mph 1021.9mb 50f 51f
7:18 10 14 mph 1021.8mb 51f 51f
7:12 11 14 mph 1021.8mb 51f 51f
7:06 11 14 mph 1021.7mb 51f 51f
7:00 11 13 mph 1021.6mb 51f 51f
6:54 10 14 mph 1021.6mb 51f 51f
6:48 10 15 mph 1021.5mb 51f 51f
6:42 13 16 mph 1021.4mb 51f 52f
6:36 11 17 mph 1021.5mb 51f 51f
6:30 13 16 mph 1021.4mb 52f 52f
6:24 11 16 mph 1021.4mb 51f 52f
6:18 13 15 mph 1021.3mb 52f 52f
6:12 10 14 mph 1021.2mb 52f 52f
6:06 9 10 mph 1021.2mb 52f 52f
6:00 9 11 mph 1021.1mb 52f 52f
5:54 9 13 mph 1021mb 52f 52f
5:48 10 13 mph 1021mb 52f 52f
5:42 10 15 mph 1021mb 52f 52f
5:36 11 16 mph 1020.8mb 52f 52f
5:30 10 15 mph 1020.8mb 52f 52f
5:24 10 14 mph 1020.8mb 52f 52f
5:18 9 13 mph 1020.9mb 52f 52f
5:12 9 14 mph 1020.9mb 52f 52f
5:06 9 13 mph 1020.7mb 52f 52f
5:00 11 16 mph 1020.6mb 52f 52f
4:54 10 15 mph 1020.7mb 52f 52f
4:48 7 9 mph 1020.8mb 52f 51f
4:42 8 11 mph 1020.8mb 52f 51f
4:36 8 11 mph 1020.8mb 52f 51f
4:30 9 11 mph 1020.8mb 53f 51f
4:24 6 9 mph 1020.8mb 52f 51f
4:18 8 13 mph 1020.9mb 52f 51f
4:12 8 10 mph 1020.8mb 52f 50f
4:06 8 18 mph 1020.7mb 53f 51f
4:00 14 32 mph 1021mb 53f 50f
3:30 22 31 mph 1020.5mb 52f 50f
3:24 24 33 mph 1020.4mb 53f 50f
3:18 21 31 mph 1020.5mb 53f 50f
3:12 23 31 mph 1020.5mb 53f 49f
3:06 25 31 mph 1020.3mb 53f 49f
3:00 23 29 mph 1020.7mb 52f 49f
1:18 25 33 mph 1022mb 53f 49f
1:12 23 31 mph 1022mb 53f 49f
1:06 28 33 mph 1021.9mb 53f 49f
1:00 25 33 mph 1021.9mb 53f 49f
12:54 24 30 mph 1022.1mb 53f 49f
12:48 23 29 mph 1022.4mb 53f 49f
12:42 22 28 mph 1022.3mb 53f 49f
12:36 22 31 mph 1022.5mb 53f 49f
12:30 24 31 mph 1022.4mb 53f 49f
12:24 23 32 mph 1022.4mb 53f 49f
12:18 24 31 mph 1022.4mb 52f 49f
12:12 22 31 mph 1022.5mb 52f 49f
12:06 24 30 mph 1022.5mb 52f 49f
12:00 23 30 mph 1022.6mb 52f 48f
11:54 24 30 mph 1022.7mb 52f 48f
11:48 23 26 mph 1022.9mb 52f 48f
11:42 22 26 mph 1023mb 52f 48f
11:36 23 28 mph 1023.1mb 52f 48f
11:30 21 25 mph 1023.2mb 52f 48f
11:24 21 25 mph 1023.3mb 52f 48f
11:18 23 26 mph 1023.3mb 52f 48f
11:12 23 26 mph 1023.3mb 52f 48f
11:06 22 26 mph 1023.5mb 52f 48f
11:00 21 25 mph 1024.1mb 52f 48f
10:54 20 24 mph 1024mb 52f 48f
10:48 22 26 mph 1023.7mb 52f 48f
10:42 22 24 mph 1023.7mb 52f 48f
10:36 21 24 mph 1024.1mb 52f 48f
10:30 20 23 mph 1024.4mb 51f 48f
10:24 18 22 mph 1024.7mb 51f 48f
10:18 18 22 mph 1024.9mb 51f 48f
10:12 17 22 mph 1024.8mb 51f 48f
10:06 18 22 mph 1024.7mb 51f 48f
10:00 18 23 mph 1024.7mb 51f 48f
9:54 18 22 mph 1024.8mb 50f 48f
9:48 17 20 mph 1024.8mb 50f 48f
9:42 15 20 mph 1024.9mb 50f 48f
9:36 16 21 mph 1024.7mb 50f 48f
9:30 17 22 mph 1024.7mb 50f 48f
9:24 17 22 mph 1024.5mb 50f 48f
9:18 16 20 mph 1024.5mb 50f 47f
9:12 18 22 mph 1024.4mb 50f 47f
9:06 16 18 mph 1024.6mb 49f 47f
9:00 16 18 mph 1024.7mb 49f 47f
8:54 14 17 mph 1024.9mb 49f 47f
8:48 15 18 mph 1024.8mb 49f 47f
8:42 17 20 mph 1024.7mb 49f 47f
8:36 17 22 mph 1024.6mb 49f 47f
8:30 16 18 mph 1024.6mb 49f 47f
8:24 15 20 mph 1024.6mb 49f 47f
8:18 16 20 mph 1024.5mb 50f 47f
8:12 14 18 mph 1024.7mb 50f 47f
8:06 15 18 mph 1024.8mb 50f 47f
8:00 15 18 mph 1024.9mb 50f 47f
7:54 15 17 mph 1024.8mb 50f 47f
7:48 14 16 mph 1024.9mb 50f 47f
7:42 14 17 mph 1024.9mb 50f 47f
7:36 14 17 mph 1025mb 50f 47f
7:30 14 16 mph 1025.1mb 50f 47f
7:24 14 16 mph 1025.1mb 50f 47f
7:18 14 17 mph 1025.1mb 51f 47f
7:12 14 18 mph 1025.1mb 51f 47f
7:06 14 16 mph 1025.1mb 51f 48f
7:00 11 16 mph 1025.1mb 51f 47f
6:54 15 21 mph 1024.9mb 51f 47f
6:48 16 18 mph 1024.8mb 51f 47f
6:42 16 18 mph 1024.9mb 51f 47f
6:36 16 18 mph 1024.8mb 51f 47f
6:30 16 20 mph 1024.7mb 51f 47f
6:24 17 21 mph 1024.8mb 51f 48f
6:18 16 21 mph 1024.8mb 51f 48f
6:12 17 22 mph 1024.8mb 51f 48f
6:06 17 21 mph 1024.8mb 51f 47f
6:00 16 20 mph 1025mb 51f 47f
5:54 17 21 mph 1025mb 51f 48f
5:48 16 22 mph 1025.2mb 51f 48f
5:42 17 20 mph 1025.2mb 51f 48f
5:36 16 20 mph 1025.1mb 51f 48f
5:30 16 21 mph 1025.2mb 51f 48f
5:24 15 18 mph 1025.2mb 51f 48f
5:18 16 20 mph 1025.2mb 52f 48f
5:12 16 20 mph 1025.3mb 51f 48f
5:06 16 20 mph 1025.4mb 51f 48f
5:00 14 20 mph 1025.5mb 51f 48f
4:54 16 20 mph 1025.5mb 52f 48f
4:48 15 21 mph 1025.7mb 52f 48f
4:42 15 20 mph 1025.7mb 53f 48f
4:36 15 18 mph 1025.8mb 51f 48f
4:30 15 17 mph 1025.8mb 51f 47f
4:24 14 17 mph 1025.8mb 52f 47f
4:18 14 17 mph 1026.1mb 52f 47f
4:12 15 18 mph 1026mb 52f 47f
4:06 15 17 mph 1026.1mb 52f 47f
4:00 14 15 mph 1026.2mb 53f 48f
3:54 14 15 mph 1026.4mb 53f 48f
3:48 13 16 mph 1026.5mb 52f 48f
3:42 14 15 mph 1026.6mb 53f 48f
3:36 14 16 mph 1026.6mb 53f 48f
3:30 14 16 mph 1026.7mb 53f 48f
3:24 13 16 mph 1026.7mb 53f 48f
3:18 14 16 mph 1026.7mb 53f 48f
3:12 13 14 mph 1026.8mb 53f 48f
3:06 11 15 mph 1026.8mb 53f 48f
3:00 11 15 mph 1026.8mb 53f 48f
2:54 13 15 mph 1026.8mb 53f 48f
2:48 14 15 mph 1026.9mb 53f 48f
2:42 13 15 mph 1026.9mb 53f 48f
2:36 14 17 mph 1027mb 53f 48f
2:30 13 14 mph 1027mb 53f 48f
2:24 13 16 mph 1027mb 53f 48f
2:18 13 16 mph 1027mb 53f 48f
2:12 14 16 mph 1027.1mb 52f 48f
2:06 14 16 mph 1027.1mb 52f 48f
2:00 14 17 mph 1027mb 52f 48f
1:54 13 16 mph 1026.9mb 52f 48f
1:48 13 15 mph 1027mb 52f 48f
1:42 13 14 mph 1027.1mb 52f 48f
1:36 13 15 mph 1027.1mb 52f 48f
1:30 13 15 mph 1027.1mb 52f 48f
1:24 13 15 mph 1027.1mb 52f 48f
1:18 11 14 mph 1027.2mb 52f 48f
1:12 13 14 mph 1027.1mb 52f 48f
1:06 13 15 mph 1027.1mb 51f 48f
1:00 13 15 mph 1027mb 51f 48f
12:54 11 15 mph 1026.9mb 51f 48f
12:48 13 14 mph 1026.9mb 51f 48f
12:42 13 15 mph 1026.8mb 51f 48f
12:36 11 14 mph 1026.8mb 51f 48f
12:30 11 14 mph 1026.7mb 51f 48f
12:24 11 14 mph 1026.8mb 51f 47f
12:18 10 13 mph 1026.9mb 51f 47f
12:12 11 13 mph 1026.9mb 51f 47f
12:06 11 14 mph 1026.9mb 51f 47f
12:00 13 15 mph 1027mb 51f 47f
jeu. 12/01 11:54 13 14 mph 1027mb 51f 47f
11:48 11 14 mph 1027.1mb 51f 47f
11:42 11 14 mph 1027mb 51f 47f
11:36 11 15 mph 1026.9mb 50f 47f
11:30 11 14 mph 1027mb 51f 47f
11:24 11 14 mph 1027mb 50f 47f
11:18 10 14 mph 1027mb 50f 47f
11:12 11 14 mph 1027mb 49f 47f
11:06 10 15 mph 1027mb 49f 47f
11:00 11 14 mph 1027.1mb 49f 47f
10:54 11 15 mph 1027mb 49f 47f
10:48 11 14 mph 1027mb 49f 47f
10:42 11 15 mph 1027mb 49f 47f
10:36 11 14 mph 1026.9mb 49f 47f
10:30 10 13 mph 1026.9mb 49f 47f
10:24 10 14 mph 1026.8mb 49f 47f
10:18 11 13 mph 1026.7mb 49f 47f
10:12 11 13 mph 1026.8mb 49f 47f
10:06 13 14 mph 1026.8mb 49f 47f
10:00 10 13 mph 1026.9mb 49f 47f
9:54 11 13 mph 1027mb 49f 47f
9:48 11 13 mph 1027mb 49f -
9:42 9 13 mph 1027mb 49f 47f
9:36 10 13 mph 1026.9mb 49f 47f
9:30 10 13 mph 1026.8mb 49f 47f
9:24 10 11 mph 1026.8mb 49f 47f
9:18 13 14 mph 1026.7mb 49f 47f
9:12 11 13 mph 1026.7mb 49f 47f
9:06 10 13 mph 1026.7mb 49f 47f
9:00 10 13 mph 1026.7mb 49f 47f
8:54 10 13 mph 1026.8mb 49f 47f
8:48 10 13 mph 1026.7mb 49f 47f
8:42 10 13 mph 1026.8mb 49f 47f
8:36 10 13 mph 1026.7mb 49f 47f
8:30 11 14 mph 1026.8mb 49f 47f
8:24 11 14 mph 1026.7mb 49f 47f
8:18 11 14 mph 1026.7mb 49f 47f
8:12 10 13 mph 1026.9mb 49f 47f
8:06 9 13 mph 1027mb 49f 47f
8:00 11 14 mph 1027mb 49f 47f
7:54 10 13 mph 1027mb 49f 47f
7:48 10 13 mph - - -
7:42 10 13 mph 1026.8mb 49f 47f
7:36 11 14 mph 1026.7mb 49f 47f
7:30 11 14 mph 1026.6mb 49f 47f
7:24 11 14 mph 1026.8mb 50f 47f
7:18 10 14 mph 1026.8mb 49f 47f
7:12 10 14 mph 1026.8mb 50f 47f
7:06 11 16 mph 1026.8mb 50f 47f
7:00 11 15 mph 1026.7mb 50f 47f
6:54 11 14 mph 1026.7mb 51f 47f
6:48 13 15 mph 1026.8mb 51f 47f
6:30 10 14 mph 1026.9mb 51f 48f
6:24 10 14 mph 1027mb 51f 48f
6:18 11 14 mph 1026.9mb 51f 47f
6:12 11 14 mph 1026.8mb 51f 47f
6:06 11 14 mph 1026.8mb 51f 47f
6:00 13 15 mph 1026.8mb 51f 48f
5:54 11 16 mph 1026.8mb 52f 48f
5:48 14 16 mph 1026.7mb 51f 47f
5:30 11 15 mph 1026.8mb 51f 47f
5:24 11 14 mph 1026.8mb 51f 47f
5:18 11 14 mph 1026.8mb 51f 47f
5:12 13 15 mph 1026.7mb 51f 47f
5:06 13 15 mph 1026.7mb 51f 47f
5:00 11 14 mph 1026.6mb 51f 47f
4:54 10 14 mph 1026.6mb 51f 47f
4:48 9 11 mph 1026.6mb 51f 47f
4:42 9 13 mph 1026.4mb 52f 47f
4:36 9 14 mph 1026.4mb 51f 47f
4:30 11 14 mph 1026.4mb 51f 47f
4:24 13 15 mph 1026.5mb 51f 47f
4:18 14 16 mph 1026.5mb 52f 47f
4:12 14 16 mph 1026.6mb 51f 47f
4:06 13 15 mph 1026.6mb 52f 47f
4:00 10 13 mph 1026.5mb 52f 47f
3:54 10 13 mph 1026.5mb 52f 47f
3:48 9 14 mph 1026.5mb 52f 47f
3:42 11 14 mph 1026.5mb 52f 47f
3:36 11 14 mph 1026.6mb 52f 47f
3:30 13 16 mph 1026.6mb 52f 47f
3:24 13 14 mph 1026.6mb 52f 47f
3:18 11 14 mph 1026.5mb 52f 47f
3:12 13 14 mph 1026.3mb 52f 47f
3:06 13 15 mph 1026.2mb 52f 47f
3:00 13 16 mph 1026.2mb 52f 47f
2:54 14 16 mph 1026mb 53f 47f
2:48 14 16 mph 1025.9mb 52f 47f
2:42 15 16 mph 1026mb 53f 47f
2:36 14 16 mph 1026mb 53f 47f
2:30 14 16 mph 1026mb 53f 47f
2:24 15 16 mph 1026mb 53f 47f
2:18 11 15 mph 1026mb 53f 48f
2:12 11 14 mph 1025.9mb 53f 48f
2:06 13 14 mph 1025.9mb 53f 48f
2:00 11 14 mph 1026mb 53f 48f
1:54 10 14 mph 1026mb 53f 48f
1:48 11 13 mph 1026.1mb 53f 48f
1:42 9 11 mph 1026.1mb 53f 48f
1:36 8 9 mph 1026.1mb 53f 48f
1:30 8 10 mph 1026.2mb 53f 47f
1:24 7 10 mph 1026.1mb 53f 47f
1:18 9 11 mph 1026mb 53f 47f
1:12 9 10 mph 1026mb 53f 47f
1:06 9 11 mph 1026.1mb 53f 47f
1:00 9 10 mph 1026.2mb 53f 47f
12:54 8 10 mph 1026.2mb 53f 47f
12:48 9 14 mph 1026.2mb 53f 47f
12:42 10 11 mph 1026.2mb 53f 47f
12:36 8 9 mph 1026.3mb 53f 47f
12:30 7 9 mph 1026.2mb 53f 47f
12:24 8 10 mph 1026.2mb 52f 47f
12:18 7 8 mph 1026.2mb 52f 47f
12:12 7 8 mph 1026.2mb 52f 47f
12:06 6 8 mph 1026.2mb 52f 47f
12:00 6 8 mph 1026.3mb 52f 47f
11:54 6 8 mph 1026.2mb 52f 47f
11:48 6 7 mph 1026.2mb 52f 47f
11:42 6 7 mph 1026.2mb 52f 47f
11:36 5 6 mph 1026.3mb 52f 47f
11:30 5 6 mph 1026.3mb 52f 47f
11:24 5 6 mph 1026.3mb 52f 47f
11:18 3 6 mph 1026.2mb 52f 46f
11:12 5
mph
1026.2mb 52f 46f
11:06 2 3 mph 1026.3mb 52f 46f
11:00 2 3 mph 1026.4mb 52f 46f
10:54 3 5 mph 1026.3mb 52f 46f
10:48 3 5 mph 1026.3mb 52f 45f
9:54 6 8 mph 1025.8mb 51f 44f
9:48 7 8 mph 1025.8mb 51f 44f
9:30 3 6 mph 1025.7mb 50f 44f
9:24 6 7 mph 1025.6mb 50f 44f
9:18 6 8 mph 1025.6mb 50f 44f
9:12 7 8 mph 1025.5mb 49f 43f
9:06 7 8 mph 1025.6mb 49f 43f
9:00 6 7 mph 1025.6mb 49f 43f
8:54 5 6 mph 1025.5mb 49f 44f
8:48 3 5 mph 1025.5mb 48f 44f
8:42 5 6 mph 1025.4mb 48f 44f
8:36 3 5 mph 1025.4mb 48f 44f
8:30 5 6 mph 1025.4mb 48f 44f
8:24 5
mph
1025.3mb 48f 44f
8:18 5 7 mph 1025.2mb 48f 43f
8:12 7 9 mph 1025mb 48f 43f
8:06 8 10 mph 1025mb 48f 43f
8:00 9 10 mph 1024.9mb 48f 43f
7:54 8 9 mph 1024.9mb 48f 43f
7:48 8 9 mph 1025mb 48f 43f
7:42 9 10 mph 1025mb 48f 43f
7:36 7 8 mph 1025mb 48f 44f
7:30 6 7 mph 1025mb 48f 44f
7:24 6 8 mph 1024.8mb 48f 43f
7:18 7 8 mph 1024.7mb 48f 44f
7:12 8
mph
1024.6mb 48f 44f
7:06 7 8 mph 1024.7mb 48f 43f
7:00 7 8 mph 1024.7mb 48f 43f
6:54 7 8 mph 1024.7mb 48f 43f
6:48 7 9 mph 1024.5mb 48f 44f
6:42 7 9 mph 1024.4mb 49f 43f
6:36 8 10 mph 1024.4mb 48f 43f
6:30 9 10 mph 1024.5mb 49f 43f
6:24 8 10 mph 1024.6mb 49f 43f
6:18 7 9 mph 1024.5mb 49f 44f
6:12 8 9 mph 1024.4mb 49f 44f
6:06 5 8 mph 1024.3mb 49f 44f
6:00 7 11 mph 1024.4mb 49f 44f
5:54 9 11 mph 1024.4mb 49f 44f
5:48 8 11 mph 1024.3mb 49f 45f
5:42 9 11 mph 1024.1mb 49f 45f
5:36 10 13 mph 1024.1mb 49f 45f
5:30 9 13 mph 1024.2mb 49f 45f
5:24 8 10 mph 1024mb 49f 45f
5:18 9 10 mph 1024mb 49f 45f
5:12 8 10 mph 1024mb 49f 45f
5:06 9 10 mph 1024mb 50f 45f
5:00 10 11 mph 1024.1mb 49f 45f
4:54 8 10 mph 1024.1mb 49f 45f
4:48 9 10 mph 1024.2mb 49f 45f
4:42 2 5 mph 1024.2mb 49f 45f
4:36 1 3 mph 1024.1mb 49f 45f
4:30 3 5 mph 1024.1mb 50f 45f
4:24 5 6 mph 1024.2mb 51f 45f
4:18 3 6 mph 1024.2mb 50f 45f
4:12 7 8 mph 1024.2mb 51f 45f
4:06 6
mph
1024.3mb 51f 44f
4:00 5 9 mph 1024.4mb 52f 44f
3:54 8 10 mph 1024.3mb 52f 44f
3:48 3 6 mph 1024.3mb 52f 44f
3:42 5 6 mph 1024.3mb 52f 45f
3:36 5 6 mph 1024.3mb 52f 45f
3:30 5
mph
1024.3mb 51f 44f
3:24 3 6 mph 1024.3mb 51f 44f
3:18 3 6 mph 1024.4mb 52f 44f
3:12 7 9 mph 1024.3mb 52f 44f
3:06 8 20 mph 1024.4mb 52f 44f
3:00 5 7 mph 1024.5mb 52f 44f
2:54 7 9 mph 1024.4mb 52f 44f
2:48 8
mph
1024.3mb 52f 44f
2:42 8
mph
1024.4mb 52f 44f
2:36 7 8 mph 1024.3mb 52f 44f
2:30 8 11 mph 1024.3mb 52f 44f
2:24 9 15 mph 1024.2mb 52f 44f
2:18 13 14 mph 1024.2mb 52f 44f
2:12 10 15 mph 1023.9mb 52f 45f
2:06 11 16 mph 1023.9mb 52f 45f
2:00 13 15 mph 1023.7mb 52f 44f
1:54 14 18 mph 1023.7mb 52f 44f
1:48 6 10 mph 1023.7mb 52f 47f
1:42 2 7 mph 1023.6mb 52f 47f
1:36 5 6 mph 1023.5mb 52f 47f
1:30 2 3 mph 1023.4mb 52f 47f
1:24 1 3 mph 1023.3mb 52f 47f
1:18 1 3 mph 1023.2mb 52f 46f
1:12 1 8 mph 1023.2mb 52f 46f
1:06 6 8 mph 1023.2mb 52f 46f
1:00 8 9 mph 1023.2mb 52f 45f
12:54 6 8 mph 1023.3mb 52f 46f
12:48 6 8 mph 1023.3mb 52f 46f
12:42 5 7 mph 1023.3mb 52f 46f
12:36 6 7 mph 1023.3mb 52f 46f
12:30 5 6 mph 1023.3mb 52f 46f
12:24 5 8 mph 1023.2mb 52f 46f
12:18 8 9 mph 1023.2mb 51f 46f
12:12 8 9 mph 1023.2mb 51f 47f
12:06 5 6 mph 1023.1mb 51f 47f
12:00 6 8 mph 1023mb 51f 47f
mer. 11/30 11:54 6 7 mph 1023mb 51f 47f
11:48 7 8 mph 1023mb 51f 47f
11:42 6 8 mph 1023mb 51f 47f
11:36 6 8 mph 1022.9mb 51f 47f
11:30 7 9 mph 1022.8mb 51f 47f
11:24 7 8 mph 1022.9mb 51f 47f
11:18 6 7 mph 1022.9mb 51f 47f
11:12 6 7 mph 1022.8mb 51f 47f
11:06 6 8 mph 1022.7mb 50f 47f
11:00 6 10 mph 1022.7mb 50f 47f
10:54 9 16 mph 1022.7mb 50f 47f
10:48 13 16 mph 1022.7mb 50f 47f
10:42 14 16 mph 1022.7mb 50f 47f
10:36 11 15 mph 1022.6mb 50f 47f
10:30 9 13 mph 1022.6mb 50f 46f
10:24 8 11 mph 1022.5mb 50f 47f
10:18 8 10 mph 1022.4mb 50f 47f
10:12 8 14 mph 1022.5mb 50f 46f
10:06 7 10 mph 1022.5mb 50f 47f
10:00 5 6 mph 1022.4mb 50f 46f
9:54 6 7 mph 1022.4mb 50f 45f
9:48 1 5 mph 1022.6mb 49f 45f
9:42 3 5 mph 1022.4mb 49f -
9:36 2 3 mph 1022.4mb 49f -
9:30 3 5 mph 1022.3mb 49f 45f
9:24 3 5 mph 1022.3mb 49f 45f
9:18 3 5 mph 1022.3mb 49f 45f
9:12 3 5 mph 1022.3mb 49f 45f
9:06 2 5 mph 1022.2mb 49f 45f
9:00 5 7 mph 1022.2mb 50f 45f
8:54 5 7 mph 1022.2mb 50f 45f
8:48 6 7 mph 1022.2mb 50f 45f
8:42 6 7 mph 1022.1mb 50f 45f
8:36 5 6 mph 1022mb 50f 46f
8:30 6 8 mph 1022mb 50f 46f
8:24 7
mph
1022mb 50f 45f
8:18 3 8 mph 1021.9mb 50f 45f
8:12 3 5 mph 1021.9mb 50f 46f
8:06 3 6 mph 1021.8mb 50f 46f
8:00 5
mph
1021.8mb 50f 46f
7:54 5
mph
1021.7mb 51f 46f
7:48 3 5 mph 1021.7mb 51f 46f
7:42 5 7 mph 1021.6mb 51f 46f
7:36 5 6 mph 1021.6mb 50f 46f
7:30 6 9 mph 1021.6mb 51f 47f
7:24 9 16 mph 1021.5mb 51f 47f
7:18 13 17 mph 1021.6mb 51f 47f
7:12 14 17 mph 1021.5mb 51f 47f
7:06 6 7 mph 1021.4mb 50f 47f
7:00 7 10 mph 1021.2mb 51f 48f
6:54 5 9 mph 1021.2mb 51f 47f
6:48 9 18 mph 1021.2mb 51f 47f
6:42 22 26 mph 1021.5mb 51f 46f
6:36 21 28 mph 1021.3mb 51f 47f
6:30 16 28 mph 1021.4mb 51f 47f
6:24 22 30 mph 1021.2mb 51f 48f
6:18 10 13 mph 1021mb 51f 49f
6:12 13 18 mph 1020.9mb 51f 49f
6:06 13 16 mph 1020.9mb 51f 49f
6:00 13 14 mph 1020.8mb 52f 49f
5:54 10 14 mph 1020.8mb 52f 49f
5:48 13 14 mph 1020.7mb 52f 49f
5:42 11 15 mph 1020.7mb 51f 49f
5:36 10 13 mph 1020.7mb 52f 49f
5:30 10 14 mph 1020.7mb 52f 49f
5:24 10 15 mph 1020.7mb 52f 49f
5:18 14 17 mph 1020.7mb 52f 50f
5:12 16 22 mph 1020.6mb 52f 50f
5:06 15 20 mph 1020.5mb 52f 50f
5:00 14 22 mph 1020.5mb 52f 50f
4:54 14 18 mph 1020.5mb 52f 50f
4:48 9 13 mph 1020.5mb 52f 49f
4:42 11 15 mph 1020.5mb 52f 49f
4:36 13 21 mph 1020.5mb 52f 49f
4:30 20 23 mph 1020.4mb 53f 49f
4:24 13 15 mph 1020.3mb 53f 51f
4:18 15 18 mph 1020.2mb 52f 51f
4:12 15 18 mph 1020.2mb 53f 51f
4:06 13 15 mph 1020.2mb 52f 51f
4:00 15 20 mph 1020.2mb 52f 51f
3:54 18 22 mph 1020.1mb 52f 51f
3:48 15 22 mph 1020mb 52f 51f
3:42 18 28 mph 1019.9mb 52f 51f
3:36 18 26 mph 1019.8mb 52f 51f
3:00 22 28 mph 1019.5mb 52f 52f
2:54 22 29 mph 1019.4mb 52f 52f
2:48 20 25 mph 1019.4mb 52f 52f
2:42 20 28 mph 1019.2mb 52f 52f
2:36 20 25 mph 1019.1mb 53f 52f
2:30 18 25 mph 1019.1mb 53f 52f
2:24 17 22 mph 1019.1mb 53f 52f
2:18 22 25 mph 1019.1mb 53f 52f
2:12 17 25 mph 1019.1mb 53f 52f
2:06 21 26 mph 1019mb 53f 52f
2:00 22 26 mph 1019mb 53f 52f
1:54 18 22 mph 1019mb 53f 52f
1:48 18 23 mph 1019mb 53f 52f
1:42 16 26 mph 1019mb 53f 52f
1:36 21 28 mph 1018.9mb 53f 52f
1:30 23 29 mph 1018.9mb 53f 52f
1:24 24 30 mph 1018.8mb 53f 52f
1:18 17 25 mph 1018.8mb 53f 52f
1:12 20 30 mph 1018.8mb 53f 52f
1:06 22 33 mph 1018.7mb 53f 52f
1:00 22 29 mph 1018.6mb 53f 52f
12:54 22 32 mph 1018.6mb 53f 52f
12:48 22 28 mph 1018.6mb 53f 52f
12:42 16 22 mph 1018.6mb 53f 51f
12:36 18 25 mph 1018.6mb 53f 51f
12:30 18 32 mph 1018.7mb 53f 50f
12:24 23 29 mph 1018.6mb 53f 51f
12:18 22 29 mph 1018.5mb 53f 52f
12:12 24 29 mph 1018.4mb 53f 52f
12:06 21 30 mph 1018.4mb 53f 52f
12:00 24 31 mph 1018.3mb 53f 52f
11:54 25 32 mph 1018.4mb 53f 52f
11:48 21 31 mph 1018.4mb 53f 52f
11:42 25 31 mph 1018.3mb 53f 52f
11:36 24 30 mph 1018.3mb 53f 52f
11:30 24 31 mph 1018.3mb 53f 52f
11:24 21 29 mph 1018.2mb 53f 52f
11:18 23 34 mph 1018.1mb 53f 52f
11:12 21 29 mph 1018.1mb 52f 52f
11:06 21 30 mph 1018.1mb 52f 52f
11:00 24 31 mph 1018.1mb 52f 52f
10:54 21 29 mph 1018mb 52f 52f
10:48 24 33 mph 1017.9mb 52f 52f
10:42 20 28 mph 1018mb 52f 52f
10:36 21 29 mph 1017.9mb 52f 52f
10:30 17 24 mph 1017.8mb 52f 52f
10:24 15 29 mph 1017.8mb 52f 51f
10:18 24 31 mph 1017.8mb 52f 51f
10:12 21 29 mph 1017.6mb 52f 52f
10:06 15 18 mph 1017.6mb 52f 51f
10:00 13 17 mph 1017.6mb 52f 50f
9:54 17 29 mph 1017.5mb 52f 50f
9:48 22 29 mph 1017.5mb 51f 50f
9:42 20 25 mph 1017.4mb 52f 50f
9:36 20 25 mph 1017.4mb 52f 49f
9:30 22 30 mph 1017.3mb 51f 48f
9:24 25 34 mph 1017.1mb 51f 49f
9:18 18 23 mph 1016.9mb 51f 51f
9:12 20 28 mph 1016.8mb 51f 51f
9:06 23 31 mph 1016.6mb 51f 51f
9:00 26 36 mph 1016.4mb 51f 51f
8:54 21 31 mph 1016.4mb 51f 51f
8:48 20 26 mph 1016.3mb 51f 51f
8:42 17 25 mph 1016.3mb 51f 50f
8:36 18 25 mph 1016.3mb 51f 50f
8:30 21 29 mph 1016.2mb 51f 49f
8:24 24 32 mph 1016.2mb 51f 50f
8:18 18 25 mph 1016.1mb 51f 50f
8:12 17 29 mph 1016.1mb 51f 50f
8:06 14 23 mph 1016.1mb 51f 49f
8:00 18 24 mph 1016mb 51f 49f
7:54 21 26 mph 1016mb 51f 49f
7:48 21 31 mph 1015.9mb 51f 48f
7:42 22 30 mph 1015.9mb 51f 49f
7:36 21 28 mph 1015.6mb 51f 50f
7:30 21 31 mph 1015.6mb 51f 50f
7:24 21 25 mph 1015.5mb 51f 50f
7:18 18 25 mph 1015.5mb 51f 49f
7:12 14 21 mph 1015.5mb 51f 49f
7:06 14 20 mph 1015.5mb 51f 48f
7:00 22 29 mph 1015.5mb 51f 47f
6:54 14 22 mph 1015.3mb 52f 49f
6:48 16 23 mph 1015mb 52f 49f
6:42 16 22 mph 1015.1mb 52f 49f
6:36 16 23 mph 1015.1mb 52f 48f
6:30 18 24 mph 1015.1mb 52f 48f
6:24 22 34 mph 1015mb 52f 47f
6:18 25 33 mph 1014.7mb 52f 49f
6:12 21 30 mph 1014.5mb 52f 50f
6:06 21 29 mph 1014.5mb 52f 50f
6:00 22 28 mph 1014.5mb 52f 50f
5:54 15 21 mph 1014.4mb 52f 49f
5:48 16 29 mph 1014.2mb 52f 49f
5:42 21 29 mph 1014.3mb 52f 48f
5:36 23 30 mph 1014.3mb 52f 50f
5:30 20 29 mph 1014.1mb 52f 51f
5:24 21 28 mph 1014.1mb 52f 51f
5:18 20 25 mph 1014mb 52f 51f
5:12 18 25 mph 1014mb 51f 50f
5:06 20 26 mph 1014mb 52f 50f
5:00 17 29 mph 1013.9mb 53f 50f
4:54 20 25 mph 1013.8mb 52f 50f
4:48 20 32 mph 1013.8mb 52f 49f
4:42 20 24 mph 1013.7mb 52f 51f
4:36 20 26 mph 1013.7mb 53f 51f
4:30 17 31 mph 1013.7mb 53f 51f
4:24 20 26 mph 1013.6mb 53f 51f
4:18 20 29 mph 1013.6mb 53f 51f
4:12 17 25 mph 1013.6mb 52f 50f
4:06 17 23 mph 1013.5mb 52f 50f
4:00 20 28 mph 1013.4mb 53f 50f
3:54 20 29 mph 1013.3mb 53f 50f
3:48 22 30 mph 1013.3mb 53f 50f
3:42 22 29 mph 1013.2mb 53f 50f
3:36 20 29 mph 1013.1mb 53f 51f
3:30 20 26 mph 1013.1mb 53f 51f
3:24 22 29 mph 1012.9mb 53f 51f
3:18 20 26 mph 1013mb 53f 51f
3:12 16 24 mph 1012.9mb 53f 51f
3:06 24 29 mph 1012.9mb 53f 51f
3:00 17 29 mph 1012.9mb 53f 51f
2:54 21 28 mph 1012.8mb 53f 51f
2:48 22 30 mph 1012.7mb 53f 51f
2:42 18 26 mph 1012.7mb 53f 51f
2:36 23 30 mph 1012.6mb 54f 51f
2:30 20 25 mph 1012.5mb 54f 51f
2:24 20 26 mph 1012.5mb 54f 52f
2:18 20 28 mph 1012.5mb 54f 52f
2:12 16 26 mph 1012.4mb 54f 51f
2:06 17 28 mph 1012.4mb 54f 51f
2:00 20 28 mph 1012.3mb 53f 51f
1:54 16 25 mph 1012.4mb 53f 50f
1:48 17 23 mph 1012.3mb 53f 49f
1:42 15 24 mph 1012.3mb 53f 49f
1:36 15 18 mph 1012.2mb 53f 50f
1:30 16 29 mph 1012.1mb 53f 49f
1:24 21 28 mph 1012mb 53f 50f
1:18 17 24 mph 1011.9mb 53f 51f
1:12 20 28 mph 1011.8mb 53f 51f
1:06 22 29 mph 1011.6mb 53f 52f
1:00 17 30 mph 1011.7mb 53f 51f
12:54 20 29 mph 1011.6mb 53f 51f
12:48 22 30 mph 1011.5mb 53f 51f
12:42 20 28 mph 1011.5mb 53f 52f
12:36 18 24 mph 1011.5mb 53f 52f
12:30 20 28 mph 1011.5mb 53f 52f
12:24 21 26 mph 1011.5mb 53f 52f
12:18 20 26 mph 1011.5mb 53f 52f
12:12 18 25 mph 1011.5mb 53f 52f
12:06 18 25 mph 1011.5mb 53f 52f
12:00 22 28 mph 1011.4mb 53f 51f
mar. 11/29 11:54 21 30 mph 1011.4mb 53f 51f
11:48 23 29 mph 1011.1mb 52f 52f
11:42 18 29 mph 1011.1mb 52f 52f
11:36 20 29 mph 1011mb 52f 52f
11:30 17 26 mph 1010.9mb 52f 52f
11:24 16 23 mph 1010.8mb 52f 51f
11:18 15 21 mph 1010.8mb 52f 49f
11:12 15 21 mph 1010.7mb 52f 49f
11:06 14 17 mph 1010.7mb 52f 48f
11:00 18 34 mph 1010.9mb 52f 47f
10:54 25 33 mph 1010.2mb 52f 48f
10:48 23 29 mph 1010.4mb 52f 48f
10:42 17 23 mph 1010.4mb 52f 47f
10:36 18 23 mph 1010.3mb 52f 47f
10:30 21 25 mph 1010.3mb 52f 48f
10:24 18 24 mph 1010.3mb 51f 47f
10:18 21 25 mph 1010.4mb 51f 48f
10:12 21 28 mph 1010.3mb 51f 48f
10:06 21 28 mph 1010.3mb 51f 48f
10:00 20 25 mph 1010.5mb 51f 48f
9:54 24 29 mph 1010.5mb 51f 48f
9:48 21 26 mph 1010.6mb - -
9:42 23 29 mph 1010.6mb - -
9:36 21 25 mph 1010.7mb - -
9:30 18 23 mph 1010.7mb 50f 48f
9:24 16 23 mph 1010.8mb 50f 48f
9:18 14 18 mph 1010.9mb 50f 48f
9:12 14 17 mph 1010.9mb 49f 48f
9:06 14 17 mph 1011mb 49f 48f
9:00 14 16 mph 1011.1mb 50f 48f
8:54 14 17 mph 1011.3mb 49f 48f
8:48 14 16 mph 1011.4mb 49f 48f
8:42 14 16 mph 1011.6mb 50f 48f
8:36 16 18 mph 1011.7mb 50f 47f
8:30 15 18 mph 1011.8mb 50f 47f
8:24 15 18 mph 1011.9mb 50f 47f
8:18 15 20 mph 1012.1mb 50f 48f
8:12 15 20 mph 1012.2mb 50f 48f
8:06 15 20 mph 1012.3mb 50f 48f
8:00 16 20 mph 1012.3mb 50f 48f
7:54 14 16 mph 1012.7mb 50f 49f
7:48 10 14 mph 1012.7mb 50f 49f
7:42 8 10 mph 1012.8mb 50f 48f
7:36 8 9 mph 1012.7mb 50f 48f
7:30 8 9 mph 1012.7mb 50f 48f
7:24 8 10 mph 1012.6mb 50f 48f
7:18 9 13 mph 1012.4mb 50f 48f
7:12 10 11 mph 1012.6mb 50f 48f
7:06 10 13 mph 1012.6mb 50f 48f
7:00 11 14 mph 1012.6mb 50f 48f
6:54 13 14 mph 1012.7mb 50f 48f
6:48 11 15 mph 1012.9mb 50f 48f
6:42 13 16 mph 1012.8mb 50f 48f
6:36 14 15 mph 1012.8mb 50f 48f
6:30 14 16 mph - 50f 48f
6:24 14 16 mph - 50f 49f
6:18  -  mph 1013.4mb 50f -
6:12  -  mph 1013.4mb 51f 49f
6:06  -  mph 1013.5mb 51f 49f
6:00 14 16 mph 1013.7mb 51f 49f
5:54 13 16 mph 1014mb 51f 49f
5:48 13 15 mph - 51f 49f
5:42 14 15 mph - 51f 49f
5:36 11 15 mph - 51f 49f
5:30 14 16 mph 1014.3mb 51f 49f
5:24 14 15 mph 1014.4mb 51f 49f
5:18 13 15 mph 1014.6mb 51f 49f
5:12 13 15 mph 1014.6mb 51f 49f
5:06 13 15 mph 1014.8mb 51f 49f
5:00 13 14 mph - 51f 49f
4:54 13 15 mph - 51f 49f
4:48 11 14 mph - 51f 50f
4:42 13 14 mph - 51f 50f
4:36 11 13 mph - 51f 50f
4:30 10 11 mph 1015.8mb 51f 50f
4:24 10 11 mph 1015.9mb 51f 50f
4:18  -  mph 1016.1mb 52f -
4:12  -  mph 1016.4mb 51f 50f
4:06  -  mph 1016.3mb 52f 51f
4:00  -  mph - 51f 51f
3:54  -  mph - 51f 51f
3:48 9 11 mph 1016.5mb 52f -
3:42 11 14 mph 1016.4mb 52f -
3:36 13 16 mph 1016.3mb 51f -
3:30 14 16 mph - 51f 51f
3:24 15 20 mph - 52f 51f
3:18 13 18 mph 1016.6mb 52f 51f
3:12 14 18 mph 1016.8mb 52f 51f
3:06 13 15 mph 1016.8mb 52f 51f
3:00 11 14 mph - 52f 51f
2:54 10 14 mph - 51f 51f
2:48 10 11 mph - 51f 51f
2:42  -  mph - 52f -
2:36  -  mph - 52f -
2:30 9 13 mph 1017.7mb 52f 51f
2:24 9 13 mph 1017.8mb 52f 51f
2:18  -  mph 1017.9mb 52f 51f
2:12  -  mph 1018mb 52f 51f
2:06  -  mph 1018.1mb 52f 50f
2:00 10 13 mph 1018.3mb 53f 50f
1:54 10 14 mph 1018.4mb 53f 50f
1:48 11 14 mph 1018.5mb 53f 50f
1:42 10 14 mph 1018.6mb 53f 50f
1:36 11 14 mph 1018.7mb 53f 51f
1:30 11 13 mph 1018.8mb 53f 51f
1:24 10 14 mph 1018.7mb 53f 51f
1:18 11 14 mph 1018.8mb 53f 51f
1:12 11 14 mph 1019mb 53f 51f
1:06 13 14 mph 1019.2mb 54f 51f
1:00 11 14 mph 1019.2mb 54f 51f
12:54 13 14 mph 1019.4mb 54f 51f
12:48 11 14 mph 1019.5mb 54f 51f
12:42 13 15 mph 1019.8mb 53f 51f
12:36 10 14 mph 1019.9mb 53f 51f
12:30 11 14 mph 1019.9mb 53f 51f
12:24 10 13 mph 1019.9mb 54f 50f
12:18 9 11 mph 1019.9mb 54f 50f
12:12 10 11 mph 1020.1mb 54f 50f
12:06 9 11 mph 1020.2mb 54f 50f
12:00 9 13 mph 1020.4mb 54f 50f
11:54 7 8 mph 1020.6mb 54f 48f
11:48 6 8 mph 1020.6mb 54f 49f
11:42 8 9 mph 1020.7mb 54f 48f
11:36 7 9 mph 1020.9mb 54f 48f
11:30 7 8 mph 1021mb 54f 48f
11:24 7 9 mph 1021.1mb 54f 48f
11:18 8 9 mph 1021.1mb 54f 48f
11:12 8
mph
1021.2mb 53f 47f
11:06 8 9 mph 1021.3mb 53f 47f
11:00 8 9 mph 1021.4mb 53f 47f
10:54 8 9 mph 1021.4mb 53f 47f
10:48 8 9 mph 1021.5mb 53f 47f
10:42 6 9 mph 1021.6mb 53f 47f
10:36 8 10 mph 1021.7mb 53f 47f
10:30 9 10 mph 1021.8mb 53f 46f
10:24 7 9 mph 1021.9mb 53f 46f
10:18 7 9 mph 1021.9mb 53f 46f
10:12 8 9 mph 1021.9mb 52f 46f
10:06 7 8 mph 1021.9mb 52f 46f
10:00 7 9 mph 1021.8mb 52f 46f
9:54 8
mph
1021.8mb 52f 46f